Historyczne dane pomiarowe

Dodano dane terminowe – wersja testowa.

Dane z okresu 1951-2019

Wersja bazy: 1.34 [2019-03-16, lista zmian], aktualizacja planowana na 2019-04-15

Dane meteo z obszaru Polski uzyskane na podstawie danych udostępnionych przez Instytut Meteorologii i Gospodarki Wodnej – Państwowy Instytut Badawczy.

 

Wybierz Datę:    

       

TemperaturaWilgotnośćWiatrCiśnienieOpadyŚniegCzas trwania zjawisk
 Stacja t tx tn tng RH VA  wxwx mslp ppp RRR   cm mm wxwxwxwxwxwxwx
1980-04-17 8.2 17.7 -2.7- 62.8- 2.7 0.7---- 0.0------------
1980-04-18 6.3 13.2 3.3- 76.5- 8.0 5.3---- 2.8------------
1980-04-19 2.6 7.4 -1.1- 84.5- 8.0 13.0---- 0.9------------
1980-04-20 1.6 4.0 -1.0- 91.3- 8.0 5.0---- 1.1-- 1---------
1980-04-21 2.6 4.3 0.0- 84.8- 7.3 1.0---- 0.0------------
1980-04-22 3.1 7.2 -0.2- 89.8- 8.0 4.3---- 7.6------------
1980-04-23 4.4 6.2 2.9- 94.3- 8.0 5.7---- 6.8------------
1980-04-24 6.5 9.4 4.0- 89.0- 8.0 1.7---- 3.9------------
1980-04-25 7.0 13.2 3.6- 81.3- 6.0 1.0---- 0.8------------
1980-04-26 7.5 12.8 2.6- 86.8- 4.0 2.7---- 0.3------------
1980-04-27 8.6 13.6 4.8- 76.0- 7.0 3.7---- 0.0------------
1980-04-28 8.5 15.8 -0.7- 75.0- 7.7 1.0---- 0.0------------
1980-04-29 7.2 12.0 5.7- 93.3- 7.3 2.3---- 2.0------------
1980-04-30 9.2 15.4 1.1- 76.3- 7.0 1.0---- 0.0------------
1980-05-01 7.3 14.7 3.5- 88.8- 8.0 3.0---- 0.0------------
1980-05-02 3.9 6.1 3.1- 80.0- 8.0 3.7---- 0.0------------
1980-05-03 3.4 5.4 -1.2- 62.5- 3.7 3.0---- 0.0------------
1980-05-04 3.2 7.3 -5.3- 63.3- 6.7 2.3---- 0.0------------
1980-05-05 7.6 11.7 -2.2- 66.5- 5.7 3.3---- 0.0------------
1980-05-06 8.6 13.2 -2.8- 68.8- 4.0 2.3---- 0.0------------
1980-05-07 11.5 15.2 -0.5- 67.0- 4.7 3.3---- 0.0------------
1980-05-08 14.5 18.5 2.1- 68.3- 6.3 2.3---- 0.0------------
1980-05-09 7.0 15.5 2.3- 86.8- 7.3 3.0---- 7.5------------
1980-05-10 10.8 15.6 0.4- 57.5- 1.3 2.0---- 0.0------------
1980-05-11 9.7 15.5 0.1- 50.3- 0.7 2.7---- 0.0------------
1980-05-12 6.8 10.0 -1.9- 57.8- 0.0 3.0---- 0.0------------
1980-05-13 6.1 10.0 -3.0- 55.8- 1.7 4.3---- 0.0------------
1980-05-14 7.6 11.6 -2.3- 59.8- 3.0 2.0---- 0.0------------
1980-05-15 9.0 12.6 -2.0- 50.5- 2.3 1.7---- 0.0------------
1980-05-16 12.2 17.0 -3.2- 57.3- 1.7 2.3---- 0.0------------
159.9 ms

 

Źródłem pochodzenia danych jest Instytut Meteorologii i Gospodarki Wodnej – Państwowy Instytut Badawczy. Dane Instytutu Meteorologii i Gospodarki Wodnej – Państwowego Instytutu Badawczego zostały przetworzone.

Dane źródłowe można odnaleźć na stronie https://dane.imgw.pl